Terminal Aerodrome Forecast
Issued by NWS Twin Cities, MN

Home | Current Version | Previous Version | Text Only | Print | Product List | Glossary On
Versions: 1 2 3 4 5 6 7 8 9 10 11 12 13 14 15 16 17 18
492
FTUS43 KMPX 181145
TAFEAU
TAF
KEAU 181145Z 1812/1912 20008KT 6SM BR OVC008
     FM181230 21008KT P6SM SKC
     FM190300 20004KT 3SM BR FEW002
     FM190600 19004KT 2SM BR OVC004=

USA.gov is the U.S. government's official web portal to all federal, state and local government web resources and services.